Achim Manz-Bothe 1:30:00 row

21,944

Meters

1:30:00.0

Time

2:03.0

Pace

1406

Calories

127

Heart Rate

Average Watts188
Calories Per Hour937
Stroke Rate26

October 27, 2018 13:27:00

Workout
RowErg

Workout Type
Fixed Time

Weight Class
Hwt

Verified
Yes

Entered
Concept2 Utility

Splits

Time Meters Pace Watts Cal/Hr Cal S/M
1:30:00.0 21,944 2:03.0 188 937 1406 26 127
3:00.0 721 2:04.8 180 900 45 25 112
6:00.0 722 2:04.6 181 920 46 26 117
9:00.0 726 2:03.9 184 920 46 27 119
12:00.0 729 2:03.4 186 940 47 27 120
15:00.0 730 2:03.2 187 940 47 27 120
18:00.0 729 2:03.4 186 940 47 26 121
21:00.0 731 2:03.1 188 940 47 26 121
24:00.0 732 2:02.9 188 940 47 26 122
27:00.0 732 2:02.9 188 940 47 26 124
30:00.0 733 2:02.7 189 940 47 26 123
33:00.0 734 2:02.6 190 940 47 27 125
36:00.0 732 2:02.9 188 940 47 26 126
39:00.0 732 2:02.9 188 940 47 26 126
42:00.0 731 2:03.1 188 940 47 26 127
45:00.0 733 2:02.7 189 940 47 26 127
48:00.0 733 2:02.7 189 940 47 26 129
51:00.0 732 2:02.9 188 940 47 26 127
54:00.0 733 2:02.7 189 940 47 27 130
57:00.0 733 2:02.7 189 940 47 26 130
1:00:00.0 732 2:02.9 188 940 47 27 131
1:03:00.0 733 2:02.7 189 940 47 26 131
1:06:00.0 732 2:02.9 188 940 47 26 132
1:09:00.0 732 2:02.9 188 940 47 27 133
1:12:00.0 733 2:02.7 189 940 47 26 132
1:15:00.0 734 2:02.6 190 940 47 27 131
1:18:00.0 733 2:02.7 189 940 47 26 134
1:21:00.0 734 2:02.6 190 940 47 26 135
1:24:00.0 734 2:02.6 190 940 47 26 135
1:27:00.0 733 2:02.7 189 940 47 26 137
1:30:00.0 734 2:02.6 190 940 47 26 137